createdAt,value
2023-05-25T00:01:28.227Z,100242.17
2023-05-25T00:06:33.480Z,100245.23
2023-05-25T00:11:36.895Z,100248.33
2023-05-25T00:16:41.188Z,100239.03
2023-05-25T00:21:48.717Z,100233.41
2023-05-25T00:26:52.467Z,100224.55
2023-05-25T00:31:55.974Z,100227.08
2023-05-25T00:36:59.598Z,100238.49
2023-05-25T00:42:04.138Z,100243.80
2023-05-25T00:47:07.647Z,100250.71
2023-05-25T00:52:13.277Z,100248.48
2023-05-25T00:57:22.669Z,100258.75
2023-05-25T01:02:27.319Z,100260.67
2023-05-25T01:07:31.450Z,100263.73
2023-05-25T01:12:37.000Z,100269.60
2023-05-25T01:17:41.296Z,100276.75
2023-05-25T01:22:52.019Z,100274.82
2023-05-25T01:28:07.314Z,100271.89
2023-05-25T01:33:11.190Z,100272.94
2023-05-25T01:38:15.066Z,100276.24
2023-05-25T01:43:18.573Z,100279.65
2023-05-25T01:48:36.116Z,100270.27
2023-05-25T01:53:54.584Z,100265.67
2023-05-25T01:59:02.420Z,100266.64
2023-05-25T02:04:06.461Z,100266.55
2023-05-25T02:09:10.160Z,100271.67
2023-05-25T02:14:14.177Z,100271.65
2023-05-25T02:19:17.590Z,100273.76
2023-05-25T02:24:23.865Z,100270.38
2023-05-25T02:29:27.389Z,100273.34
2023-05-25T02:34:31.110Z,100278.98
2023-05-25T02:39:34.730Z,100293.26
2023-05-25T02:44:38.549Z,100291.79
2023-05-25T02:49:42.067Z,100287.03
2023-05-25T02:54:45.786Z,100289.11
2023-05-25T02:59:50.168Z,100290.77
2023-05-25T03:04:54.164Z,100290.85
2023-05-25T03:09:58.479Z,100295.41
2023-05-25T03:15:02.004Z,100297.39
2023-05-25T03:20:06.585Z,100296.53
2023-05-25T03:25:13.843Z,100302.61
2023-05-25T03:30:17.368Z,100308.41
2023-05-25T03:35:21.093Z,100315.56
2023-05-25T03:40:24.816Z,100322.96
2023-05-25T03:45:28.427Z,100326.58
2023-05-25T03:50:32.452Z,100337.10
2023-05-25T03:55:35.864Z,100337.08
2023-05-25T04:00:39.590Z,100342.77
2023-05-25T04:05:43.357Z,100345.00
2023-05-25T04:10:47.120Z,100353.39
2023-05-25T04:15:51.665Z,100353.64
2023-05-25T04:20:57.738Z,100353.33
2023-05-25T04:26:02.178Z,100352.93
2023-05-25T04:31:06.182Z,100352.74
2023-05-25T04:36:11.349Z,100350.59
2023-05-25T04:41:15.615Z,100343.18
2023-05-25T04:46:19.226Z,100343.57
2023-05-25T04:51:23.331Z,100343.88
2023-05-25T04:56:27.107Z,100342.30
2023-05-25T05:01:31.357Z,100340.91
2023-05-25T05:06:35.628Z,100340.49
2023-05-25T05:11:39.346Z,100338.59
2023-05-25T05:16:42.890Z,100339.48
2023-05-25T05:21:46.580Z,100338.42
2023-05-25T05:26:58.194Z,100340.29
2023-05-25T05:32:02.623Z,100338.20
2023-05-25T05:37:06.234Z,100338.03
2023-05-25T05:42:09.855Z,100335.95
2023-05-25T05:47:13.376Z,100343.50
2023-05-25T05:52:17.193Z,100354.50
2023-05-25T05:57:21.422Z,100354.92
2023-05-25T06:02:25.106Z,100354.98
2023-05-25T06:07:31.224Z,100346.81
2023-05-25T06:12:35.066Z,100347.84
2023-05-25T06:17:38.527Z,100352.64
2023-05-25T06:22:42.182Z,100354.36
2023-05-25T06:27:45.799Z,100363.43
2023-05-25T06:32:49.456Z,100374.30
2023-05-25T06:37:53.243Z,100382.10
2023-05-25T06:42:56.647Z,100387.09
2023-05-25T06:48:00.536Z,100398.06
2023-05-25T06:53:04.808Z,100395.27
2023-05-25T06:58:08.211Z,100405.63
2023-05-25T07:03:11.757Z,100406.88
2023-05-25T07:08:15.360Z,100393.55
2023-05-25T07:13:18.869Z,100398.07
2023-05-25T07:18:22.382Z,100400.17
2023-05-25T07:23:25.923Z,100400.94
2023-05-25T07:28:29.315Z,100397.98
2023-05-25T07:33:33.340Z,100400.14
2023-05-25T07:38:36.960Z,100404.10
2023-05-25T07:43:40.992Z,100411.55
2023-05-25T07:48:44.500Z,100414.74
2023-05-25T07:53:48.018Z,100429.40
2023-05-25T07:58:51.742Z,100432.59
2023-05-25T08:03:55.854Z,100437.54
2023-05-25T08:08:59.398Z,100440.41
2023-05-25T08:14:03.012Z,100438.60
2023-05-25T08:19:06.818Z,100435.19
2023-05-25T08:24:10.335Z,100435.00
2023-05-25T08:29:13.952Z,100446.73
2023-05-25T08:34:17.578Z,100443.21
2023-05-25T08:39:20.993Z,100443.81
2023-05-25T08:44:24.398Z,100446.42
2023-05-25T08:49:29.502Z,100456.79
2023-05-25T08:54:36.821Z,100457.40
2023-05-25T08:59:57.164Z,100454.70
2023-05-25T09:05:02.543Z,100451.71
2023-05-25T09:10:08.009Z,100454.27
2023-05-25T09:15:12.464Z,100460.61
2023-05-25T09:20:18.909Z,100461.60
2023-05-25T09:25:26.527Z,100468.80
2023-05-25T09:30:33.326Z,100461.66
2023-05-25T09:35:37.670Z,100474.38
2023-05-25T09:40:41.579Z,100475.56
2023-05-25T09:45:45.637Z,100485.86
2023-05-25T09:50:50.180Z,100488.89
2023-05-25T09:55:54.581Z,100501.35
2023-05-25T10:00:58.644Z,100499.77
2023-05-25T10:06:03.567Z,100503.19
2023-05-25T10:11:07.994Z,100499.50
2023-05-25T10:16:13.775Z,100501.08
2023-05-25T10:21:18.830Z,100500.04
2023-05-25T10:26:26.740Z,100504.69
2023-05-25T10:31:32.544Z,100503.80
2023-05-25T10:36:38.485Z,100506.35
2023-05-25T10:41:42.701Z,100507.35
2023-05-25T10:46:46.205Z,100504.48
2023-05-25T10:51:58.704Z,100521.14
2023-05-25T10:57:14.490Z,100513.00
2023-05-25T11:02:23.853Z,100511.36
2023-05-25T11:07:27.726Z,100519.13
2023-05-25T11:12:31.171Z,100521.61
2023-05-25T11:17:45.372Z,100520.27
2023-05-25T11:22:52.509Z,100517.87
2023-05-25T11:28:03.509Z,100521.77
2023-05-25T11:33:08.169Z,100514.27
2023-05-25T11:38:12.375Z,100513.30
2023-05-25T11:43:16.300Z,100511.70
2023-05-25T11:48:19.931Z,100515.84
2023-05-25T11:53:23.737Z,100516.33
2023-05-25T11:58:34.268Z,100512.04
2023-05-25T12:03:37.771Z,100510.91
2023-05-25T12:08:41.445Z,100505.84
2023-05-25T12:13:45.064Z,100505.52
2023-05-25T12:18:48.835Z,100509.58
2023-05-25T12:23:54.961Z,100507.29
2023-05-25T12:29:06.259Z,100508.54
2023-05-25T12:34:17.781Z,100515.83
2023-05-25T12:39:30.664Z,100520.89
2023-05-25T12:44:35.730Z,100506.23
2023-05-25T12:49:40.246Z,100510.52
2023-05-25T12:54:45.495Z,100509.85
2023-05-25T12:59:56.797Z,100505.44
2023-05-25T13:05:00.402Z,100505.46
2023-05-25T13:10:04.060Z,100502.50
2023-05-25T13:15:08.071Z,100497.48
2023-05-25T13:20:15.854Z,100497.69
2023-05-25T13:25:19.755Z,100494.90
2023-05-25T13:30:23.313Z,100493.84
2023-05-25T13:35:46.385Z,100490.40
2023-05-25T13:40:50.062Z,100489.36
2023-05-25T13:45:54.140Z,100489.86
2023-05-25T13:50:57.500Z,100484.70
2023-05-25T13:56:01.424Z,100477.90
2023-05-25T14:01:05.497Z,100479.45
2023-05-25T14:06:09.074Z,100477.05
2023-05-25T14:11:12.590Z,100473.34
2023-05-25T14:16:16.209Z,100474.99
2023-05-25T14:21:20.128Z,100470.64
2023-05-25T14:26:24.670Z,100464.67
2023-05-25T14:31:28.768Z,100469.66
2023-05-25T14:36:32.208Z,100473.16
2023-05-25T14:41:35.933Z,100470.91
2023-05-25T14:46:39.408Z,100477.22
2023-05-25T14:51:43.477Z,100475.94
2023-05-25T14:56:47.919Z,100487.00
2023-05-25T15:01:51.704Z,100475.10
2023-05-25T15:06:55.353Z,100477.16
2023-05-25T15:11:59.868Z,100473.65
2023-05-25T15:17:03.411Z,100477.59
2023-05-25T15:22:07.236Z,100473.27
2023-05-25T15:27:10.849Z,100477.48
2023-05-25T15:32:17.952Z,100482.67
2023-05-25T15:37:21.466Z,100486.55
2023-05-25T15:42:25.006Z,100492.95
2023-05-25T15:47:28.687Z,100484.79
2023-05-25T15:52:32.423Z,100492.34
2023-05-25T15:57:36.048Z,100491.55
2023-05-25T16:02:39.669Z,100494.56
2023-05-25T16:07:43.380Z,100494.55
2023-05-25T16:12:47.000Z,100494.19
2023-05-25T16:17:50.726Z,100491.87
2023-05-25T16:22:54.129Z,100489.70
2023-05-25T16:27:57.853Z,100496.06
2023-05-25T16:33:01.428Z,100501.63
2023-05-25T16:38:05.183Z,100514.34
2023-05-25T16:43:08.601Z,100523.69
2023-05-25T16:48:12.277Z,100520.95
2023-05-25T16:53:15.848Z,100513.40
2023-05-25T16:58:19.350Z,100520.20
2023-05-25T17:03:23.024Z,100525.39
2023-05-25T17:08:26.717Z,100522.40
2023-05-25T17:13:30.209Z,100526.42
2023-05-25T17:18:33.669Z,100528.67
2023-05-25T17:23:37.237Z,100535.50
2023-05-25T17:28:40.750Z,100533.25
2023-05-25T17:33:44.382Z,100534.94
2023-05-25T17:38:47.987Z,100536.45
2023-05-25T17:43:51.505Z,100535.08
2023-05-25T17:48:55.022Z,100529.33
2023-05-25T17:53:58.548Z,100532.86
2023-05-25T17:59:02.155Z,100535.61
2023-05-25T18:04:05.811Z,100535.04
2023-05-25T18:09:09.510Z,100530.77
2023-05-25T18:14:12.804Z,100531.76
2023-05-25T18:19:18.262Z,100533.95
2023-05-25T18:24:21.793Z,100529.92
2023-05-25T18:29:25.192Z,100530.70
2023-05-25T18:34:29.894Z,100533.23
2023-05-25T18:39:34.231Z,100535.47
2023-05-25T18:44:37.567Z,100543.77
2023-05-25T18:49:41.202Z,100545.46
2023-05-25T18:54:44.514Z,100542.32
2023-05-25T18:59:48.133Z,100545.79
2023-05-25T19:04:51.592Z,100547.21
2023-05-25T19:09:55.160Z,100544.44
2023-05-25T19:15:01.176Z,100542.89
2023-05-25T19:20:05.196Z,100544.88
2023-05-25T19:25:08.610Z,100557.35
2023-05-25T19:30:12.353Z,100561.31
2023-05-25T19:35:15.710Z,100566.06
2023-05-25T19:40:19.684Z,100566.70
2023-05-25T19:45:23.155Z,100569.33
2023-05-25T19:50:30.876Z,100566.66
2023-05-25T19:55:36.529Z,100567.32
2023-05-25T20:00:40.003Z,100564.82
2023-05-25T20:05:44.204Z,100567.70
2023-05-25T20:10:48.201Z,100568.08
2023-05-25T20:15:51.674Z,100564.98
2023-05-25T20:20:55.332Z,100569.56
2023-05-25T20:25:59.069Z,100573.38
2023-05-25T20:31:02.578Z,100574.00
2023-05-25T20:36:06.348Z,100578.05
2023-05-25T20:41:09.802Z,100579.32
2023-05-25T20:46:13.393Z,100577.08
2023-05-25T20:51:17.146Z,100577.24
2023-05-25T20:56:20.764Z,100573.80
2023-05-25T21:01:24.724Z,100569.32
2023-05-25T21:06:28.108Z,100572.65
2023-05-25T21:11:32.034Z,100577.13
2023-05-25T21:16:35.508Z,100577.81
2023-05-25T21:21:39.476Z,100581.21
2023-05-25T21:26:48.172Z,100575.03
2023-05-25T21:31:52.125Z,100575.89
2023-05-25T21:36:55.750Z,100577.73
2023-05-25T21:41:59.376Z,100576.11
2023-05-25T21:47:03.026Z,100576.52
2023-05-25T21:52:06.910Z,100576.32
2023-05-25T21:57:10.438Z,100573.85
2023-05-25T22:02:14.220Z,100565.52
2023-05-25T22:07:18.072Z,100563.28
2023-05-25T22:12:21.606Z,100568.34
2023-05-25T22:17:25.221Z,100570.98
2023-05-25T22:22:28.722Z,100571.42
2023-05-25T22:27:33.368Z,100565.56
2023-05-25T22:32:36.939Z,100565.28
2023-05-25T22:37:41.313Z,100556.14
2023-05-25T22:42:50.466Z,100553.70
2023-05-25T22:47:54.113Z,100552.64
2023-05-25T22:52:57.702Z,100550.00
2023-05-25T22:58:01.238Z,100543.05
2023-05-25T23:03:04.915Z,100543.16
2023-05-25T23:08:09.069Z,100542.31
2023-05-25T23:13:14.726Z,100544.48
2023-05-25T23:18:18.161Z,100548.05
2023-05-25T23:23:21.860Z,100548.74
2023-05-25T23:28:25.430Z,100544.30
2023-05-25T23:33:29.608Z,100552.67
2023-05-25T23:38:33.023Z,100545.92
2023-05-25T23:43:36.587Z,100546.81
2023-05-25T23:48:40.171Z,100542.24
2023-05-25T23:53:43.778Z,100544.18
2023-05-25T23:58:47.393Z,100540.22
